EST,Max TemperatureF,Mean TemperatureF,Min TemperatureF,Max Dew PointF,MeanDew PointF,Min DewpointF,Max Humidity, Mean Humidity, Min Humidity, Max Sea Level PressureIn, Mean Sea Level PressureIn, Min Sea Level PressureIn, Max VisibilityMiles, Mean VisibilityMiles, Min VisibilityMiles, Max Wind SpeedMPH, Mean Wind SpeedMPH, Max Gust SpeedMPH,PrecipitationIn, CloudCover, Events, WindDirDegrees
2012-12-1,63,54,45,48,44,39,80,68,56,30.31,30.24,30.19,10,10,10,16,8,20,0.00,5,,175
2012-12-2,67,59,51,57,51,45,87,75,63,30.20,30.15,30.10,10,10,4,29,13,37,0.15,6,Rain,200
2012-12-3,70,63,56,56,53,48,86,74,61,30.21,30.16,30.11,10,10,10,20,11,24,0.00,3,,192
2012-12-4,63,54,45,60,54,41,100,86,72,30.24,30.13,30.06,10,8,2,24,10,29,1.01,8,Rain,217
2012-12-5,55,44,33,43,38,31,100,75,50,30.35,30.29,30.23,10,8,1,12,5,14,0.00,0,,35
2012-12-6,52,41,29,49,40,27,100,86,71,30.24,30.11,30.00,10,9,2,12,7,15,0.06,5,Rain,136
2012-12-7,57,54,50,55,52,48,100,92,83,30.01,29.94,29.88,10,8,2,13,6,18,0.52,8,Rain,182
2012-12-8,60,56,51,57,53,49,100,89,77,30.00,29.92,29.86,10,8,3,15,8,20,0.25,8,Rain,241
2012-12-9,60,55,50,59,55,50,100,95,90,30.01,29.91,29.74,10,7,1,22,10,26,0.70,8,Rain,146
2012-12-10,60,46,31,57,44,28,100,93,85,29.98,29.76,29.69,10,7,2,17,10,24,0.91,8,Rain,289
2012-12-11,34,29,24,28,25,22,92,78,64,30.28,30.12,29.97,10,10,9,13,5,15,0.00,6,,271
2012-12-12,43,32,20,27,23,18,100,73,45,30.42,30.37,30.30,10,10,7,12,5,14,0.00,0,,77
2012-12-13,47,34,21,31,25,19,92,73,53,30.43,30.37,30.29,10,10,8,8,3,9,0.00,0,,120
2012-12-14,54,40,26,30,27,24,92,62,32,30.36,30.28,30.17,10,10,10,10,7,13,0.00,0,,170
2012-12-15,56,48,40,45,38,27,73,63,53,30.16,30.00,29.85,10,10,10,18,10,25,0.01,5,Rain,166
2012-12-16,61,57,53,55,52,48,93,80,66,29.85,29.78,29.71,10,10,10,18,11,23,0.00,6,,191
2012-12-17,59,51,43,54,50,43,100,88,75,29.76,29.66,29.55,10,8,2,28,7,38,0.82,7,Rain-Thunderstorm,211
2012-12-18,45,42,38,45,38,34,100,83,65,29.94,29.80,29.64,10,9,4,22,11,29,T,6,Rain,251
2012-12-19,53,45,37,40,37,35,92,73,54,30.08,30.00,29.86,10,10,10,16,7,22,0.00,0,,118
2012-12-20,54,42,30,48,41,26,100,83,66,29.92,29.58,29.36,10,7,2,36,20,51,1.03,7,Rain-Snow,189
2012-12-21,30,29,27,28,23,19,92,81,69,30.16,29.87,29.67,10,7,2,30,18,41,0.01,8,Snow,273
2012-12-22,35,28,20,23,20,17,91,74,56,30.33,30.22,30.12,10,10,10,17,8,24,0.00,3,,234
2012-12-23,49,39,28,40,28,19,86,68,50,30.11,30.01,29.94,10,10,10,16,9,21,0.00,2,,190
2012-12-24,49,43,37,48,43,34,100,93,86,30.01,29.86,29.78,10,6,1,16,8,20,0.07,8,Rain,214
2012-12-25,37,34,31,32,29,26,89,82,75,30.15,30.07,29.94,10,8,5,23,11,29,0.01,8,Rain,32
2012-12-26,42,36,29,42,33,27,100,96,92,29.96,29.65,29.45,10,6,1,32,15,38,0.37,8,Rain-Snow,352
2012-12-27,31,30,28,27,25,23,92,85,78,30.19,30.11,29.98,10,10,10,16,6,22,0.00,8,,312
2012-12-28,37,33,29,34,29,24,100,88,75,30.16,30.01,29.81,10,9,2,12,5,15,0.17,8,Rain-Snow,122
2012-12-29,33,29,24,32,29,19,100,88,75,30.29,29.88,29.69,10,5,1,21,11,28,0.37,8,Snow,248
2012-12-30,28,25,22,22,20,18,92,84,75,30.51,30.43,30.30,10,10,10,20,7,25,0.00,4,,231
2012-12-31,35,29,23,32,26,20,89,80,70,30.37,30.24,30.12,10,10,5,15,8,20,0.09,5,Rain,200